sensor_id;sensor_type;location;lat;lon;timestamp;P1;durP1;ratioP1;P2;durP2;ratioP2
17059;SDS011;8646;49.716;9.266;2024-03-25T00:02:49;3.80;;;2.20;;
17059;SDS011;8646;49.716;9.266;2024-03-25T00:05:51;7.27;;;2.20;;
17059;SDS011;8646;49.716;9.266;2024-03-25T00:08:52;8.70;;;2.47;;
17059;SDS011;8646;49.716;9.266;2024-03-25T00:11:55;6.90;;;2.27;;
17059;SDS011;8646;49.716;9.266;2024-03-25T00:14:56;7.37;;;2.50;;
17059;SDS011;8646;49.716;9.266;2024-03-25T00:17:58;6.30;;;2.20;;
17059;SDS011;8646;49.716;9.266;2024-03-25T00:20:58;5.60;;;2.43;;
17059;SDS011;8646;49.716;9.266;2024-03-25T00:24:00;7.40;;;2.50;;
17059;SDS011;8646;49.716;9.266;2024-03-25T00:27:03;8.53;;;2.50;;
17059;SDS011;8646;49.716;9.266;2024-03-25T00:30:05;7.07;;;2.53;;
17059;SDS011;8646;49.716;9.266;2024-03-25T00:33:09;11.63;;;2.40;;
17059;SDS011;8646;49.716;9.266;2024-03-25T00:36:11;6.60;;;2.60;;
17059;SDS011;8646;49.716;9.266;2024-03-25T00:39:13;6.93;;;2.40;;
17059;SDS011;8646;49.716;9.266;2024-03-25T00:42:15;6.37;;;2.30;;
17059;SDS011;8646;49.716;9.266;2024-03-25T00:45:17;5.27;;;2.37;;
17059;SDS011;8646;49.716;9.266;2024-03-25T00:48:18;11.27;;;2.50;;
17059;SDS011;8646;49.716;9.266;2024-03-25T00:51:20;6.77;;;2.67;;
17059;SDS011;8646;49.716;9.266;2024-03-25T00:54:20;4.53;;;2.50;;
17059;SDS011;8646;49.716;9.266;2024-03-25T00:57:25;6.80;;;2.70;;
17059;SDS011;8646;49.716;9.266;2024-03-25T01:00:26;4.57;;;2.50;;
17059;SDS011;8646;49.716;9.266;2024-03-25T01:03:27;8.67;;;2.63;;
17059;SDS011;8646;49.716;9.266;2024-03-25T01:06:29;9.83;;;3.00;;
17059;SDS011;8646;49.716;9.266;2024-03-25T01:09:31;7.80;;;2.90;;
17059;SDS011;8646;49.716;9.266;2024-03-25T01:12:33;7.20;;;2.83;;
17059;SDS011;8646;49.716;9.266;2024-03-25T01:15:35;6.83;;;2.83;;
17059;SDS011;8646;49.716;9.266;2024-03-25T01:18:36;5.37;;;2.73;;
17059;SDS011;8646;49.716;9.266;2024-03-25T01:21:38;6.97;;;2.70;;
17059;SDS011;8646;49.716;9.266;2024-03-25T01:24:39;10.53;;;3.13;;
17059;SDS011;8646;49.716;9.266;2024-03-25T01:27:42;6.13;;;2.60;;
17059;SDS011;8646;49.716;9.266;2024-03-25T01:30:43;7.17;;;2.97;;
17059;SDS011;8646;49.716;9.266;2024-03-25T01:33:45;5.30;;;2.90;;
17059;SDS011;8646;49.716;9.266;2024-03-25T01:36:46;11.00;;;3.47;;
17059;SDS011;8646;49.716;9.266;2024-03-25T01:39:47;7.27;;;3.20;;
17059;SDS011;8646;49.716;9.266;2024-03-25T01:42:56;7.13;;;3.43;;
17059;SDS011;8646;49.716;9.266;2024-03-25T01:45:57;7.57;;;3.07;;
17059;SDS011;8646;49.716;9.266;2024-03-25T01:48:59;8.43;;;3.03;;
17059;SDS011;8646;49.716;9.266;2024-03-25T01:52:01;7.70;;;3.00;;
17059;SDS011;8646;49.716;9.266;2024-03-25T01:55:02;6.27;;;2.93;;
17059;SDS011;8646;49.716;9.266;2024-03-25T01:58:06;6.20;;;3.00;;
17059;SDS011;8646;49.716;9.266;2024-03-25T02:01:08;5.63;;;2.80;;
17059;SDS011;8646;49.716;9.266;2024-03-25T02:04:14;7.30;;;2.53;;
17059;SDS011;8646;49.716;9.266;2024-03-25T02:07:15;7.77;;;2.90;;
17059;SDS011;8646;49.716;9.266;2024-03-25T02:10:18;6.93;;;2.80;;
17059;SDS011;8646;49.716;9.266;2024-03-25T02:13:20;7.77;;;2.50;;
17059;SDS011;8646;49.716;9.266;2024-03-25T02:16:23;8.67;;;2.50;;
17059;SDS011;8646;49.716;9.266;2024-03-25T02:19:24;7.03;;;2.40;;
17059;SDS011;8646;49.716;9.266;2024-03-25T02:22:26;7.97;;;2.33;;
17059;SDS011;8646;49.716;9.266;2024-03-25T02:25:30;10.57;;;2.53;;
17059;SDS011;8646;49.716;9.266;2024-03-25T02:28:35;11.50;;;2.47;;
17059;SDS011;8646;49.716;9.266;2024-03-25T02:31:36;9.17;;;2.33;;
17059;SDS011;8646;49.716;9.266;2024-03-25T02:34:37;8.70;;;2.57;;
17059;SDS011;8646;49.716;9.266;2024-03-25T02:37:40;9.37;;;2.70;;
17059;SDS011;8646;49.716;9.266;2024-03-25T02:40:41;4.90;;;2.33;;
17059;SDS011;8646;49.716;9.266;2024-03-25T02:43:44;7.10;;;2.47;;
17059;SDS011;8646;49.716;9.266;2024-03-25T02:46:45;8.17;;;2.73;;
17059;SDS011;8646;49.716;9.266;2024-03-25T02:49:47;9.20;;;2.30;;
17059;SDS011;8646;49.716;9.266;2024-03-25T02:52:49;6.87;;;2.63;;
17059;SDS011;8646;49.716;9.266;2024-03-25T02:55:50;6.10;;;2.30;;
17059;SDS011;8646;49.716;9.266;2024-03-25T02:58:53;5.33;;;2.80;;
17059;SDS011;8646;49.716;9.266;2024-03-25T03:01:53;9.37;;;3.43;;
17059;SDS011;8646;49.716;9.266;2024-03-25T03:04:55;9.43;;;3.10;;
17059;SDS011;8646;49.716;9.266;2024-03-25T03:07:56;12.33;;;3.70;;
17059;SDS011;8646;49.716;9.266;2024-03-25T03:10:58;6.90;;;3.07;;
17059;SDS011;8646;49.716;9.266;2024-03-25T03:14:00;8.37;;;3.10;;
17059;SDS011;8646;49.716;9.266;2024-03-25T03:17:02;10.53;;;3.57;;
17059;SDS011;8646;49.716;9.266;2024-03-25T03:20:05;9.27;;;3.37;;
17059;SDS011;8646;49.716;9.266;2024-03-25T03:23:08;8.83;;;2.80;;
17059;SDS011;8646;49.716;9.266;2024-03-25T03:26:08;6.53;;;2.50;;
17059;SDS011;8646;49.716;9.266;2024-03-25T03:29:11;8.23;;;2.47;;
17059;SDS011;8646;49.716;9.266;2024-03-25T03:32:13;8.10;;;2.53;;
17059;SDS011;8646;49.716;9.266;2024-03-25T03:35:14;10.13;;;2.47;;
17059;SDS011;8646;49.716;9.266;2024-03-25T03:38:16;7.73;;;2.57;;
17059;SDS011;8646;49.716;9.266;2024-03-25T03:41:16;4.50;;;2.20;;
17059;SDS011;8646;49.716;9.266;2024-03-25T03:44:20;11.87;;;2.60;;
17059;SDS011;8646;49.716;9.266;2024-03-25T03:47:21;7.50;;;2.13;;
17059;SDS011;8646;49.716;9.266;2024-03-25T03:50:23;3.73;;;1.90;;
17059;SDS011;8646;49.716;9.266;2024-03-25T03:53:23;6.83;;;2.20;;
17059;SDS011;8646;49.716;9.266;2024-03-25T03:56:25;5.20;;;1.80;;
17059;SDS011;8646;49.716;9.266;2024-03-25T03:59:27;4.83;;;1.80;;
17059;SDS011;8646;49.716;9.266;2024-03-25T04:02:29;6.47;;;1.87;;
17059;SDS011;8646;49.716;9.266;2024-03-25T04:05:30;7.80;;;1.73;;
17059;SDS011;8646;49.716;9.266;2024-03-25T04:08:32;5.67;;;1.93;;
17059;SDS011;8646;49.716;9.266;2024-03-25T04:11:35;7.10;;;1.87;;
17059;SDS011;8646;49.716;9.266;2024-03-25T04:14:38;7.60;;;1.80;;
17059;SDS011;8646;49.716;9.266;2024-03-25T04:17:39;12.90;;;2.37;;
17059;SDS011;8646;49.716;9.266;2024-03-25T04:20:41;5.10;;;1.70;;
17059;SDS011;8646;49.716;9.266;2024-03-25T04:23:42;4.60;;;1.67;;
17059;SDS011;8646;49.716;9.266;2024-03-25T04:26:45;4.30;;;1.77;;
17059;SDS011;8646;49.716;9.266;2024-03-25T04:29:47;15.13;;;4.43;;
17059;SDS011;8646;49.716;9.266;2024-03-25T04:32:49;10.50;;;3.00;;
17059;SDS011;8646;49.716;9.266;2024-03-25T04:35:50;8.60;;;2.33;;
17059;SDS011;8646;49.716;9.266;2024-03-25T04:38:51;6.67;;;2.07;;
17059;SDS011;8646;49.716;9.266;2024-03-25T04:41:52;7.70;;;2.10;;
17059;SDS011;8646;49.716;9.266;2024-03-25T04:44:54;7.10;;;1.80;;
17059;SDS011;8646;49.716;9.266;2024-03-25T04:47:55;8.40;;;2.20;;
17059;SDS011;8646;49.716;9.266;2024-03-25T04:50:56;4.13;;;1.70;;
17059;SDS011;8646;49.716;9.266;2024-03-25T04:53:57;4.10;;;1.60;;
17059;SDS011;8646;49.716;9.266;2024-03-25T04:56:58;5.93;;;1.40;;
17059;SDS011;8646;49.716;9.266;2024-03-25T05:00:00;4.00;;;1.93;;
17059;SDS011;8646;49.716;9.266;2024-03-25T05:03:02;5.93;;;1.83;;
17059;SDS011;8646;49.716;9.266;2024-03-25T05:06:03;6.10;;;2.00;;
17059;SDS011;8646;49.716;9.266;2024-03-25T05:09:04;9.77;;;2.23;;
17059;SDS011;8646;49.716;9.266;2024-03-25T05:12:05;4.87;;;2.07;;
17059;SDS011;8646;49.716;9.266;2024-03-25T05:15:08;10.10;;;2.20;;
17059;SDS011;8646;49.716;9.266;2024-03-25T05:18:09;5.13;;;2.40;;
17059;SDS011;8646;49.716;9.266;2024-03-25T05:21:10;6.20;;;2.23;;
17059;SDS011;8646;49.716;9.266;2024-03-25T05:24:11;6.33;;;2.20;;
17059;SDS011;8646;49.716;9.266;2024-03-25T05:27:12;7.10;;;2.50;;
17059;SDS011;8646;49.716;9.266;2024-03-25T05:30:14;6.27;;;2.53;;
17059;SDS011;8646;49.716;9.266;2024-03-25T05:33:15;8.30;;;2.67;;
17059;SDS011;8646;49.716;9.266;2024-03-25T05:36:16;6.97;;;3.10;;
17059;SDS011;8646;49.716;9.266;2024-03-25T05:39:17;10.83;;;3.43;;
17059;SDS011;8646;49.716;9.266;2024-03-25T05:42:18;9.67;;;3.40;;
17059;SDS011;8646;49.716;9.266;2024-03-25T05:45:20;11.20;;;3.87;;
17059;SDS011;8646;49.716;9.266;2024-03-25T05:48:21;13.60;;;4.07;;
17059;SDS011;8646;49.716;9.266;2024-03-25T05:51:24;10.87;;;3.93;;
17059;SDS011;8646;49.716;9.266;2024-03-25T05:54:25;12.97;;;5.10;;
17059;SDS011;8646;49.716;9.266;2024-03-25T05:57:26;19.83;;;5.13;;
17059;SDS011;8646;49.716;9.266;2024-03-25T06:00:28;15.17;;;5.13;;
17059;SDS011;8646;49.716;9.266;2024-03-25T06:03:29;12.47;;;4.63;;
17059;SDS011;8646;49.716;9.266;2024-03-25T06:06:30;18.73;;;5.20;;
17059;SDS011;8646;49.716;9.266;2024-03-25T06:09:30;16.17;;;4.53;;
17059;SDS011;8646;49.716;9.266;2024-03-25T06:12:31;14.27;;;4.97;;
17059;SDS011;8646;49.716;9.266;2024-03-25T06:15:33;14.90;;;4.67;;
17059;SDS011;8646;49.716;9.266;2024-03-25T06:18:34;12.07;;;4.00;;
17059;SDS011;8646;49.716;9.266;2024-03-25T06:21:35;12.00;;;4.20;;
17059;SDS011;8646;49.716;9.266;2024-03-25T06:24:36;11.90;;;3.70;;
17059;SDS011;8646;49.716;9.266;2024-03-25T06:27:37;10.93;;;3.63;;
17059;SDS011;8646;49.716;9.266;2024-03-25T06:30:39;7.53;;;3.20;;
17059;SDS011;8646;49.716;9.266;2024-03-25T06:33:58;14.27;;;3.53;;
17059;SDS011;8646;49.716;9.266;2024-03-25T06:37:17;8.23;;;3.00;;
17059;SDS011;8646;49.716;9.266;2024-03-25T06:40:18;8.23;;;3.27;;
17059;SDS011;8646;49.716;9.266;2024-03-25T06:43:19;8.17;;;3.50;;
17059;SDS011;8646;49.716;9.266;2024-03-25T06:46:21;8.23;;;2.87;;
17059;SDS011;8646;49.716;9.266;2024-03-25T06:49:22;8.93;;;2.80;;
17059;SDS011;8646;49.716;9.266;2024-03-25T06:52:23;10.27;;;2.93;;
17059;SDS011;8646;49.716;9.266;2024-03-25T06:55:23;9.17;;;2.20;;
17059;SDS011;8646;49.716;9.266;2024-03-25T06:58:25;8.73;;;2.83;;
17059;SDS011;8646;49.716;9.266;2024-03-25T07:01:28;5.77;;;2.87;;
17059;SDS011;8646;49.716;9.266;2024-03-25T07:04:29;9.07;;;2.60;;
17059;SDS011;8646;49.716;9.266;2024-03-25T07:07:29;7.97;;;2.90;;
17059;SDS011;8646;49.716;9.266;2024-03-25T07:10:30;8.57;;;2.57;;
17059;SDS011;8646;49.716;9.266;2024-03-25T07:13:31;7.17;;;2.93;;
17059;SDS011;8646;49.716;9.266;2024-03-25T07:16:33;16.33;;;3.70;;
17059;SDS011;8646;49.716;9.266;2024-03-25T07:19:34;11.53;;;3.03;;
17059;SDS011;8646;49.716;9.266;2024-03-25T07:22:35;9.00;;;3.43;;
17059;SDS011;8646;49.716;9.266;2024-03-25T07:25:36;13.03;;;3.13;;
17059;SDS011;8646;49.716;9.266;2024-03-25T07:28:37;9.70;;;3.00;;
17059;SDS011;8646;49.716;9.266;2024-03-25T07:31:39;12.60;;;2.87;;
17059;SDS011;8646;49.716;9.266;2024-03-25T07:34:40;10.13;;;3.30;;
17059;SDS011;8646;49.716;9.266;2024-03-25T07:37:40;12.10;;;2.90;;
17059;SDS011;8646;49.716;9.266;2024-03-25T07:40:41;11.53;;;3.03;;
17059;SDS011;8646;49.716;9.266;2024-03-25T07:43:42;8.40;;;3.03;;
17059;SDS011;8646;49.716;9.266;2024-03-25T07:46:44;9.90;;;2.80;;
17059;SDS011;8646;49.716;9.266;2024-03-25T07:49:45;10.20;;;2.90;;
17059;SDS011;8646;49.716;9.266;2024-03-25T07:52:46;11.37;;;2.33;;
17059;SDS011;8646;49.716;9.266;2024-03-25T07:55:47;8.43;;;2.20;;
17059;SDS011;8646;49.716;9.266;2024-03-25T07:58:48;5.50;;;1.80;;
17059;SDS011;8646;49.716;9.266;2024-03-25T08:01:50;11.40;;;1.97;;
17059;SDS011;8646;49.716;9.266;2024-03-25T08:04:51;8.40;;;2.17;;
17059;SDS011;8646;49.716;9.266;2024-03-25T08:07:51;8.20;;;1.90;;
17059;SDS011;8646;49.716;9.266;2024-03-25T08:10:52;7.83;;;1.93;;
17059;SDS011;8646;49.716;9.266;2024-03-25T08:13:53;10.73;;;1.87;;
17059;SDS011;8646;49.716;9.266;2024-03-25T08:16:55;4.83;;;1.53;;
17059;SDS011;8646;49.716;9.266;2024-03-25T08:19:56;10.37;;;1.87;;
17059;SDS011;8646;49.716;9.266;2024-03-25T08:22:57;6.57;;;1.40;;
17059;SDS011;8646;49.716;9.266;2024-03-25T08:25:58;10.33;;;1.87;;
17059;SDS011;8646;49.716;9.266;2024-03-25T08:28:59;7.53;;;1.70;;
17059;SDS011;8646;49.716;9.266;2024-03-25T08:32:01;6.10;;;1.87;;
17059;SDS011;8646;49.716;9.266;2024-03-25T08:35:02;5.83;;;1.73;;
17059;SDS011;8646;49.716;9.266;2024-03-25T08:38:03;8.50;;;2.17;;
17059;SDS011;8646;49.716;9.266;2024-03-25T08:41:04;6.77;;;1.70;;
17059;SDS011;8646;49.716;9.266;2024-03-25T08:44:05;12.73;;;1.60;;
17059;SDS011;8646;49.716;9.266;2024-03-25T08:47:07;10.13;;;2.40;;
17059;SDS011;8646;49.716;9.266;2024-03-25T08:50:08;6.20;;;1.77;;
17059;SDS011;8646;49.716;9.266;2024-03-25T08:53:09;5.80;;;1.27;;
17059;SDS011;8646;49.716;9.266;2024-03-25T08:56:10;7.33;;;2.70;;
17059;SDS011;8646;49.716;9.266;2024-03-25T08:59:11;10.27;;;1.80;;
17059;SDS011;8646;49.716;9.266;2024-03-25T09:02:13;10.10;;;2.27;;
17059;SDS011;8646;49.716;9.266;2024-03-25T09:05:14;7.30;;;1.60;;
17059;SDS011;8646;49.716;9.266;2024-03-25T09:08:15;6.97;;;1.60;;
17059;SDS011;8646;49.716;9.266;2024-03-25T09:11:16;8.40;;;1.83;;
17059;SDS011;8646;49.716;9.266;2024-03-25T09:14:16;7.70;;;2.00;;
17059;SDS011;8646;49.716;9.266;2024-03-25T09:17:19;9.27;;;2.20;;
17059;SDS011;8646;49.716;9.266;2024-03-25T09:20:19;8.67;;;1.67;;
17059;SDS011;8646;49.716;9.266;2024-03-25T09:23:20;8.67;;;1.67;;
17059;SDS011;8646;49.716;9.266;2024-03-25T09:26:21;6.33;;;1.83;;
17059;SDS011;8646;49.716;9.266;2024-03-25T09:29:22;10.30;;;1.47;;
17059;SDS011;8646;49.716;9.266;2024-03-25T09:32:24;7.37;;;1.73;;
17059;SDS011;8646;49.716;9.266;2024-03-25T09:35:25;7.93;;;1.63;;
17059;SDS011;8646;49.716;9.266;2024-03-25T09:38:26;5.97;;;1.50;;
17059;SDS011;8646;49.716;9.266;2024-03-25T09:41:27;9.50;;;1.30;;
17059;SDS011;8646;49.716;9.266;2024-03-25T09:44:28;4.53;;;1.43;;
17059;SDS011;8646;49.716;9.266;2024-03-25T09:47:33;5.13;;;1.00;;
17059;SDS011;8646;49.716;9.266;2024-03-25T09:50:34;5.03;;;1.20;;
17059;SDS011;8646;49.716;9.266;2024-03-25T09:53:35;7.07;;;1.37;;
17059;SDS011;8646;49.716;9.266;2024-03-25T09:56:37;5.13;;;1.30;;
17059;SDS011;8646;49.716;9.266;2024-03-25T09:59:39;8.13;;;1.50;;
17059;SDS011;8646;49.716;9.266;2024-03-25T10:02:41;9.13;;;1.70;;
17059;SDS011;8646;49.716;9.266;2024-03-25T10:05:43;5.10;;;1.30;;
17059;SDS011;8646;49.716;9.266;2024-03-25T10:08:44;5.70;;;1.20;;
17059;SDS011;8646;49.716;9.266;2024-03-25T10:11:47;4.13;;;1.20;;
17059;SDS011;8646;49.716;9.266;2024-03-25T10:14:48;2.67;;;0.83;;
17059;SDS011;8646;49.716;9.266;2024-03-25T10:17:50;3.70;;;1.30;;
17059;SDS011;8646;49.716;9.266;2024-03-25T10:20:52;4.13;;;1.20;;
17059;SDS011;8646;49.716;9.266;2024-03-25T10:23:53;3.80;;;1.23;;
17059;SDS011;8646;49.716;9.266;2024-03-25T10:26:54;4.77;;;1.17;;
17059;SDS011;8646;49.716;9.266;2024-03-25T10:29:55;3.07;;;1.00;;
17059;SDS011;8646;49.716;9.266;2024-03-25T10:33:00;4.80;;;1.10;;
17059;SDS011;8646;49.716;9.266;2024-03-25T10:36:03;4.77;;;1.07;;
17059;SDS011;8646;49.716;9.266;2024-03-25T10:39:04;6.87;;;1.30;;
17059;SDS011;8646;49.716;9.266;2024-03-25T10:42:06;3.50;;;1.57;;
17059;SDS011;8646;49.716;9.266;2024-03-25T10:45:08;5.67;;;1.40;;
17059;SDS011;8646;49.716;9.266;2024-03-25T10:48:12;7.87;;;1.40;;
17059;SDS011;8646;49.716;9.266;2024-03-25T10:51:18;4.73;;;1.10;;
17059;SDS011;8646;49.716;9.266;2024-03-25T10:54:21;5.43;;;1.30;;
17059;SDS011;8646;49.716;9.266;2024-03-25T10:57:23;5.90;;;1.23;;
17059;SDS011;8646;49.716;9.266;2024-03-25T11:00:25;3.00;;;1.03;;
17059;SDS011;8646;49.716;9.266;2024-03-25T11:03:27;4.63;;;1.23;;
17059;SDS011;8646;49.716;9.266;2024-03-25T11:06:28;4.60;;;1.30;;
17059;SDS011;8646;49.716;9.266;2024-03-25T11:09:29;5.17;;;1.00;;
17059;SDS011;8646;49.716;9.266;2024-03-25T11:12:32;5.03;;;1.17;;
17059;SDS011;8646;49.716;9.266;2024-03-25T11:15:35;4.97;;;1.40;;
17059;SDS011;8646;49.716;9.266;2024-03-25T11:18:38;4.40;;;0.80;;
17059;SDS011;8646;49.716;9.266;2024-03-25T11:21:39;5.63;;;1.20;;
17059;SDS011;8646;49.716;9.266;2024-03-25T11:24:43;3.27;;;1.23;;
17059;SDS011;8646;49.716;9.266;2024-03-25T11:27:44;3.30;;;1.03;;
17059;SDS011;8646;49.716;9.266;2024-03-25T11:30:45;4.27;;;0.97;;
17059;SDS011;8646;49.716;9.266;2024-03-25T11:33:48;3.53;;;0.90;;
17059;SDS011;8646;49.716;9.266;2024-03-25T11:36:49;4.73;;;0.80;;
17059;SDS011;8646;49.716;9.266;2024-03-25T11:39:51;5.07;;;1.13;;
17059;SDS011;8646;49.716;9.266;2024-03-25T11:43:02;5.43;;;1.00;;
17059;SDS011;8646;49.716;9.266;2024-03-25T11:46:04;3.07;;;1.00;;
17059;SDS011;8646;49.716;9.266;2024-03-25T11:49:07;4.23;;;1.10;;
17059;SDS011;8646;49.716;9.266;2024-03-25T11:52:12;4.33;;;0.90;;
17059;SDS011;8646;49.716;9.266;2024-03-25T11:55:16;2.80;;;0.87;;
17059;SDS011;8646;49.716;9.266;2024-03-25T11:58:17;3.33;;;0.90;;
17059;SDS011;8646;49.716;9.266;2024-03-25T12:01:18;5.30;;;1.10;;
17059;SDS011;8646;49.716;9.266;2024-03-25T12:04:20;3.67;;;1.43;;
17059;SDS011;8646;49.716;9.266;2024-03-25T12:07:21;6.60;;;1.40;;
17059;SDS011;8646;49.716;9.266;2024-03-25T12:10:21;3.37;;;1.20;;
17059;SDS011;8646;49.716;9.266;2024-03-25T12:13:41;3.07;;;1.03;;
17059;SDS011;8646;49.716;9.266;2024-03-25T12:16:41;3.23;;;0.87;;
17059;SDS011;8646;49.716;9.266;2024-03-25T12:19:44;2.97;;;0.80;;
17059;SDS011;8646;49.716;9.266;2024-03-25T12:22:45;6.93;;;1.13;;
17059;SDS011;8646;49.716;9.266;2024-03-25T12:25:47;5.37;;;1.00;;
17059;SDS011;8646;49.716;9.266;2024-03-25T12:28:49;5.03;;;1.10;;
17059;SDS011;8646;49.716;9.266;2024-03-25T12:31:53;2.90;;;1.10;;
17059;SDS011;8646;49.716;9.266;2024-03-25T12:34:56;3.47;;;0.83;;
17059;SDS011;8646;49.716;9.266;2024-03-25T12:37:58;3.63;;;0.83;;
17059;SDS011;8646;49.716;9.266;2024-03-25T12:41:03;4.67;;;1.03;;
17059;SDS011;8646;49.716;9.266;2024-03-25T12:44:05;2.10;;;0.90;;
17059;SDS011;8646;49.716;9.266;2024-03-25T12:47:05;4.90;;;1.10;;
17059;SDS011;8646;49.716;9.266;2024-03-25T12:50:08;2.43;;;0.80;;
17059;SDS011;8646;49.716;9.266;2024-03-25T12:53:09;2.07;;;0.80;;
17059;SDS011;8646;49.716;9.266;2024-03-25T12:56:18;1.80;;;0.60;;
17059;SDS011;8646;49.716;9.266;2024-03-25T12:59:18;2.63;;;0.90;;
17059;SDS011;8646;49.716;9.266;2024-03-25T13:02:19;3.40;;;1.03;;
17059;SDS011;8646;49.716;9.266;2024-03-25T13:05:22;3.60;;;1.10;;
17059;SDS011;8646;49.716;9.266;2024-03-25T13:08:22;3.60;;;0.93;;
17059;SDS011;8646;49.716;9.266;2024-03-25T13:11:23;3.63;;;0.80;;
17059;SDS011;8646;49.716;9.266;2024-03-25T13:14:24;7.20;;;1.00;;
17059;SDS011;8646;49.716;9.266;2024-03-25T13:17:25;4.50;;;1.10;;
17059;SDS011;8646;49.716;9.266;2024-03-25T13:20:28;2.90;;;0.90;;
17059;SDS011;8646;49.716;9.266;2024-03-25T13:23:28;2.37;;;0.90;;
17059;SDS011;8646;49.716;9.266;2024-03-25T13:26:30;2.97;;;0.87;;
17059;SDS011;8646;49.716;9.266;2024-03-25T13:29:30;4.17;;;1.00;;
17059;SDS011;8646;49.716;9.266;2024-03-25T13:32:31;2.13;;;0.80;;
17059;SDS011;8646;49.716;9.266;2024-03-25T13:35:34;5.70;;;0.80;;
17059;SDS011;8646;49.716;9.266;2024-03-25T13:38:34;4.67;;;1.20;;
17059;SDS011;8646;49.716;9.266;2024-03-25T13:41:35;3.57;;;0.90;;
17059;SDS011;8646;49.716;9.266;2024-03-25T13:44:36;7.30;;;1.00;;
17059;SDS011;8646;49.716;9.266;2024-03-25T13:47:37;3.27;;;0.97;;
17059;SDS011;8646;49.716;9.266;2024-03-25T13:50:39;2.77;;;1.03;;
17059;SDS011;8646;49.716;9.266;2024-03-25T13:53:40;2.67;;;1.00;;
17059;SDS011;8646;49.716;9.266;2024-03-25T13:56:41;4.40;;;0.93;;
17059;SDS011;8646;49.716;9.266;2024-03-25T13:59:42;2.40;;;1.00;;
17059;SDS011;8646;49.716;9.266;2024-03-25T14:02:43;3.70;;;0.90;;
17059;SDS011;8646;49.716;9.266;2024-03-25T14:05:45;6.53;;;1.00;;
17059;SDS011;8646;49.716;9.266;2024-03-25T14:08:46;2.50;;;0.80;;
17059;SDS011;8646;49.716;9.266;2024-03-25T14:11:47;5.80;;;1.00;;
17059;SDS011;8646;49.716;9.266;2024-03-25T14:14:48;2.73;;;0.80;;
17059;SDS011;8646;49.716;9.266;2024-03-25T14:17:48;1.60;;;0.60;;
17059;SDS011;8646;49.716;9.266;2024-03-25T14:20:51;3.23;;;1.00;;
17059;SDS011;8646;49.716;9.266;2024-03-25T14:23:52;4.07;;;1.00;;
17059;SDS011;8646;49.716;9.266;2024-03-25T14:26:53;3.60;;;0.97;;
17059;SDS011;8646;49.716;9.266;2024-03-25T14:29:54;3.63;;;1.10;;
17059;SDS011;8646;49.716;9.266;2024-03-25T14:32:54;2.50;;;1.00;;
17059;SDS011;8646;49.716;9.266;2024-03-25T14:35:57;6.47;;;1.17;;
17059;SDS011;8646;49.716;9.266;2024-03-25T14:38:57;2.90;;;1.10;;
17059;SDS011;8646;49.716;9.266;2024-03-25T14:41:58;7.57;;;1.23;;
17059;SDS011;8646;49.716;9.266;2024-03-25T14:44:59;2.93;;;1.20;;
17059;SDS011;8646;49.716;9.266;2024-03-25T14:48:00;3.33;;;1.20;;
17059;SDS011;8646;49.716;9.266;2024-03-25T14:51:02;4.97;;;1.30;;
17059;SDS011;8646;49.716;9.266;2024-03-25T14:54:04;4.87;;;1.23;;
17059;SDS011;8646;49.716;9.266;2024-03-25T14:57:04;3.60;;;1.20;;
17059;SDS011;8646;49.716;9.266;2024-03-25T15:00:06;3.83;;;1.33;;
17059;SDS011;8646;49.716;9.266;2024-03-25T15:03:07;3.73;;;0.93;;
17059;SDS011;8646;49.716;9.266;2024-03-25T15:06:09;3.80;;;1.20;;
17059;SDS011;8646;49.716;9.266;2024-03-25T15:09:10;5.17;;;1.27;;
17059;SDS011;8646;49.716;9.266;2024-03-25T15:12:11;5.40;;;1.10;;
17059;SDS011;8646;49.716;9.266;2024-03-25T15:15:12;4.37;;;1.33;;
17059;SDS011;8646;49.716;9.266;2024-03-25T15:18:13;8.47;;;1.60;;
17059;SDS011;8646;49.716;9.266;2024-03-25T15:21:15;3.63;;;1.10;;
17059;SDS011;8646;49.716;9.266;2024-03-25T15:24:16;2.33;;;1.00;;
17059;SDS011;8646;49.716;9.266;2024-03-25T15:27:17;4.63;;;1.17;;
17059;SDS011;8646;49.716;9.266;2024-03-25T15:30:18;5.13;;;2.20;;
17059;SDS011;8646;49.716;9.266;2024-03-25T15:33:19;20.37;;;7.00;;
17059;SDS011;8646;49.716;9.266;2024-03-25T15:36:21;4.67;;;2.30;;
17059;SDS011;8646;49.716;9.266;2024-03-25T15:39:22;3.07;;;1.50;;
17059;SDS011;8646;49.716;9.266;2024-03-25T15:42:23;4.97;;;1.20;;
17059;SDS011;8646;49.716;9.266;2024-03-25T15:45:23;7.23;;;1.50;;
17059;SDS011;8646;49.716;9.266;2024-03-25T15:48:24;6.43;;;1.50;;
17059;SDS011;8646;49.716;9.266;2024-03-25T15:51:28;4.57;;;1.10;;
17059;SDS011;8646;49.716;9.266;2024-03-25T15:54:29;1.93;;;0.93;;
17059;SDS011;8646;49.716;9.266;2024-03-25T15:57:30;3.70;;;1.87;;
17059;SDS011;8646;49.716;9.266;2024-03-25T16:00:31;3.00;;;1.30;;
17059;SDS011;8646;49.716;9.266;2024-03-25T16:03:31;4.00;;;1.30;;
17059;SDS011;8646;49.716;9.266;2024-03-25T16:06:34;2.77;;;1.13;;
17059;SDS011;8646;49.716;9.266;2024-03-25T16:09:34;2.47;;;1.50;;
17059;SDS011;8646;49.716;9.266;2024-03-25T16:12:35;22.67;;;14.97;;
17059;SDS011;8646;49.716;9.266;2024-03-25T16:15:36;10.80;;;7.00;;
17059;SDS011;8646;49.716;9.266;2024-03-25T16:18:37;15.60;;;11.37;;
17059;SDS011;8646;49.716;9.266;2024-03-25T16:21:39;4.23;;;2.40;;
17059;SDS011;8646;49.716;9.266;2024-03-25T16:24:40;2.60;;;1.27;;
17059;SDS011;8646;49.716;9.266;2024-03-25T16:27:41;4.73;;;1.60;;
17059;SDS011;8646;49.716;9.266;2024-03-25T16:30:42;5.57;;;1.50;;
17059;SDS011;8646;49.716;9.266;2024-03-25T16:33:43;6.00;;;1.90;;
17059;SDS011;8646;49.716;9.266;2024-03-25T16:36:45;6.00;;;1.90;;
17059;SDS011;8646;49.716;9.266;2024-03-25T16:39:46;8.63;;;2.63;;
17059;SDS011;8646;49.716;9.266;2024-03-25T16:42:47;4.37;;;1.40;;
17059;SDS011;8646;49.716;9.266;2024-03-25T16:45:47;5.17;;;1.67;;
17059;SDS011;8646;49.716;9.266;2024-03-25T16:48:48;4.97;;;1.97;;
17059;SDS011;8646;49.716;9.266;2024-03-25T16:51:50;4.67;;;1.67;;
17059;SDS011;8646;49.716;9.266;2024-03-25T16:54:51;7.10;;;2.53;;
17059;SDS011;8646;49.716;9.266;2024-03-25T16:57:52;5.53;;;2.07;;
17059;SDS011;8646;49.716;9.266;2024-03-25T17:00:53;4.87;;;1.40;;
17059;SDS011;8646;49.716;9.266;2024-03-25T17:03:54;6.43;;;1.80;;
17059;SDS011;8646;49.716;9.266;2024-03-25T17:06:56;5.10;;;1.53;;
17059;SDS011;8646;49.716;9.266;2024-03-25T17:09:57;3.70;;;1.50;;
17059;SDS011;8646;49.716;9.266;2024-03-25T17:13:00;5.80;;;2.40;;
17059;SDS011;8646;49.716;9.266;2024-03-25T17:16:01;4.77;;;2.20;;
17059;SDS011;8646;49.716;9.266;2024-03-25T17:19:02;7.00;;;2.20;;
17059;SDS011;8646;49.716;9.266;2024-03-25T17:22:04;8.07;;;2.17;;
17059;SDS011;8646;49.716;9.266;2024-03-25T17:25:05;3.93;;;1.33;;
17059;SDS011;8646;49.716;9.266;2024-03-25T17:28:07;3.70;;;1.40;;
17059;SDS011;8646;49.716;9.266;2024-03-25T17:31:09;7.87;;;2.33;;
17059;SDS011;8646;49.716;9.266;2024-03-25T17:34:10;19.07;;;10.03;;
17059;SDS011;8646;49.716;9.266;2024-03-25T17:37:12;12.47;;;5.13;;
17059;SDS011;8646;49.716;9.266;2024-03-25T17:40:13;19.83;;;12.80;;
17059;SDS011;8646;49.716;9.266;2024-03-25T17:43:14;10.03;;;3.70;;
17059;SDS011;8646;49.716;9.266;2024-03-25T17:46:15;11.43;;;5.87;;
17059;SDS011;8646;49.716;9.266;2024-03-25T17:49:16;45.40;;;21.07;;
17059;SDS011;8646;49.716;9.266;2024-03-25T17:52:18;26.33;;;9.37;;
17059;SDS011;8646;49.716;9.266;2024-03-25T17:55:19;16.80;;;8.47;;
17059;SDS011;8646;49.716;9.266;2024-03-25T17:58:20;22.33;;;9.07;;
17059;SDS011;8646;49.716;9.266;2024-03-25T18:01:21;14.57;;;6.90;;
17059;SDS011;8646;49.716;9.266;2024-03-25T18:04:22;11.80;;;4.87;;
17059;SDS011;8646;49.716;9.266;2024-03-25T18:07:24;21.70;;;10.80;;
17059;SDS011;8646;49.716;9.266;2024-03-25T18:10:25;17.83;;;7.57;;
17059;SDS011;8646;49.716;9.266;2024-03-25T18:13:26;27.83;;;13.13;;
17059;SDS011;8646;49.716;9.266;2024-03-25T18:16:27;14.20;;;7.37;;
17059;SDS011;8646;49.716;9.266;2024-03-25T18:19:28;17.70;;;10.07;;
17059;SDS011;8646;49.716;9.266;2024-03-25T18:22:30;14.70;;;9.90;;
17059;SDS011;8646;49.716;9.266;2024-03-25T18:25:31;14.07;;;8.90;;
17059;SDS011;8646;49.716;9.266;2024-03-25T18:28:32;11.40;;;5.80;;